Group: GEM

Releases: 5.364 · Total size: 452,64 GB

First: 2002-10-22 · Last: 2026-08-17

By section: MP3/FLAC 5.364 (452,64 GB)

Release Section Group Size Files Date ↓
Climax_Absolute_-_Parijatak_EP_(560002330)-Vinyl-1995-gEm MP3/FLAC gEm 22,72 MB 2 2003-05-24
Climax_Absolute_-_Mamiouzeuh_EP_(5600030300)-Vinyl-1995-gEm MP3/FLAC gEm 21,09 MB 2 2003-05-24
VA_-_Miko_X-Wave_II-2003-gEm MP3/FLAC gEm 101,81 MB 10 2003-05-23
RMS_-_Space_Academy_3_(CCY004)-VLS-199X-gEm MP3/FLAC gEm 16,76 MB 2 2003-05-23
Dancing_Dolphins_-_Pump_The_Bass_Up_(CCY017)-VLS-199X-gEm MP3/FLAC gEm 17,89 MB 2 2003-05-23
Choci_And_Ant_-_Blue_Beard_(CC033)-VLS-199X-gEm MP3/FLAC gEm 21,03 MB 2 2003-05-23
Cosmic_Tramp_-_Nomad_Steps-1996-gEm MP3/FLAC gEm 88,95 MB 11 2003-05-22
VA_-_Yellow_Sunshine_Explosion_Vol_4-2cd-2003-gEm MP3/FLAC gEm 170,53 MB 4 2003-05-21
VA_-_Mechanism-2002-gEm MP3/FLAC gEm 102,21 MB 9 2003-05-20
VA_-_Electronic_High-2000-gEm MP3/FLAC gEm 89,34 MB 9 2003-05-19
VA_-_Chillout_Dreams_2-2cd-2001-gEm MP3/FLAC gEm 157,05 MB 20 2003-05-19
VA_-_Spiritual_Lounge_Vibe_Two-2003-gEm MP3/FLAC gEm 88,08 MB 14 2003-05-18
VA_-_In_Order_To_Dance_1_(RSLP_1)-1991-gEm MP3/FLAC gEm 53,19 MB 8 2003-05-18
The_Source_Experience_-_The_Source_Experience_(RS_93027)-1993-gEm MP3/FLAC gEm 53,81 MB 5 2003-05-18
Ravesignal_-_Vol.II_(RS_928)-1992-gEm MP3/FLAC gEm 29,37 MB 4 2003-05-18
Random_XS_-_Give_Your_Body_(Djax-Up_136)-1992-gEm MP3/FLAC gEm 34,60 MB 3 2003-05-18
Random_XS_-_As_It_Takes_(Djax-Up_195)-1994-gEm MP3/FLAC gEm 36,23 MB 3 2003-05-18
Pitt_And_Ramin_-_Afrotrance_Vol._III_(RS_93021)-1993-gEm MP3/FLAC gEm 34,63 MB 4 2003-05-18
Outlander_-_Steal_My_Love_(RS_93018)-1993-gEm MP3/FLAC gEm 34,79 MB 4 2003-05-18
Mundo_Muzique_-_The_Lost_Archives_(89-94)_(SW_11)-1995-gEm MP3/FLAC gEm 44,06 MB 9 2003-05-18
Mundo_Muzique_-_Andromeda_(RS_92018)-1992-gEm MP3/FLAC gEm 22,40 MB 3 2003-05-18
Locust_-_No-One_In_The_World_(Apollo_35CD)-1998-gEm MP3/FLAC gEm 40,91 MB 5 2003-05-18
Le_Car_-_Automatic_EP_(Craft_Rec_25)-1997-gEm MP3/FLAC gEm 31,27 MB 10 2003-05-18
LDC_-_Spacewalk_(Ltd.Ed._10inch)-1996-gEm MP3/FLAC gEm 9,74 MB 1 2003-05-18
Ken_Ishii_-_Circular_Motion_(RS_JS7)-1996-gEm MP3/FLAC gEm 8,69 MB 1 2003-05-18
Golden_Girls_-_Kinetic_Remixes_(RS_93007)-1993-gEm MP3/FLAC gEm 23,71 MB 3 2003-05-18
Edge_Of_Motion_-_Motions_Beyond_(Djax-Up_147)-1992-gEm MP3/FLAC gEm 42,37 MB 7 2003-05-18
Edge_Of_Motion_-_Edge_Of_Motion_(Djax-Up_135)-1992-gEm MP3/FLAC gEm 38,13 MB 6 2003-05-18
Dr._Fernando_-_Caverna_Magica_EP_(RS_94051)-1994-gEm MP3/FLAC gEm 48,57 MB 6 2003-05-18
David_Morley_-_The_Shuttle_EP_(RS_93030)-1993-gEm MP3/FLAC gEm 39,46 MB 5 2003-05-18
Air_Liquide_-_If_There_Was_No_Gravity_(RSN_79CD)-1994-gEm MP3/FLAC gEm 32,27 MB 4 2003-05-18
69_-_Jam_The_Box_(RS_94045_CD_X)-1994-gEm MP3/FLAC gEm 37,20 MB 4 2003-05-18
VA_-_Spiritual_Lounge_Vibe_One-2003-gEm MP3/FLAC gEm 99,75 MB 14 2003-05-16
Affie_Yusuf_And_Nigel_Casey_-_Symphony_Of_Life_(PER909)-Promo-Vinyl-1994-gEm MP3/FLAC gEm 36,95 MB 4 2003-05-16
Affie_Yusuf_-_Acid_Waves_2_(FER003)-Vinyl-1993-gEm MP3/FLAC gEm 43,53 MB 5 2003-05-16
Affie_Yusuf_-_Acid_Waves_1_(FER002)-Vinyl-1993-gEm MP3/FLAC gEm 33,75 MB 4 2003-05-16
Marco_Zaffarano_-_Minimalism_Vol_2_(HH_012)-EP-1992-gEm MP3/FLAC gEm 19,89 MB 3 2003-05-14
Marco_Zaffarano_-_Minimalism_Vol.3_(HH-017)-1993-gEm MP3/FLAC gEm 29,55 MB 4 2003-05-14
False_-_False_(Plus8_083CD)-2003-gEm MP3/FLAC gEm 86,55 MB 10 2003-05-14
Ultravoice_-_Magic_Sound_Factory-2003-gEm MP3/FLAC gEm 96,28 MB 10 2003-05-13
Sven_Looping_-_Digital_Dance-Fullmoon-Tommy_Bar-Thailand-2003-gEm MP3/FLAC gEm 109,81 MB 2 2003-05-13
Kob-Deny-JR_-_Fullmoon-Thailand_17-03-03-Live-2003-gEm MP3/FLAC gEm 94,54 MB 1 2003-05-11
DJ_Note_-_Fullmoon_Party-Thailand_17-03-03-Live-2003-gEm MP3/FLAC gEm 97,70 MB 2 2003-05-11
Barbarella_-_Barbarella_1_(HH_001)-Vinyl-1992-gEm MP3/FLAC gEm 30,51 MB 3 2003-05-11
Alter_Ego_-_Soulfree_Remixes_(HH_061)-1994-gEm MP3/FLAC gEm 21,86 MB 2 2003-05-11
Sven_Looping_-_Funk_You_Fullmoon-Tommy_Bar-Thailand-2003-gEm MP3/FLAC gEm 108,22 MB 2 2003-05-10
Rest_In_Solar_-_Mixed_By_Sabaii_Sabaii-2003-gEm MP3/FLAC gEm 83,93 MB 2 2003-05-10
Kafewah_-_Instant-Promo-2001-gEm MP3/FLAC gEm 58,93 MB 8 2003-05-07
VA_-_Holographic_Memory-2003-gEm MP3/FLAC gEm 102,35 MB 10 2003-05-02
The_Advent_-_Annihilate-_(PAIN_012)-EP-1998-gEm MP3/FLAC gEm 15,00 MB 2 2003-04-25